Time;durP1;ratioP1;P1;durP2;ratioP2;P2;SDS_P1;SDS_P2;PMS_P1;PMS_P2;Temp;Humidity;BMP_temperature;BMP_pressure;BME280_temperature;BME280_humidity;BME280_pressure;Samples;Min_cycle;Max_cycle;Signal;HPM_P1;HPM_P2
2023/08/20 00:00:14;;;;;;;5.03;3.22;;;22.70;99.90;;;23.25;100.00;101410.09;5162076;28;20050;-55
2023/08/20 00:02:55;;;;;;;5.38;3.50;;;22.70;99.90;;;23.25;100.00;101405.66;5155183;28;20569;-56
2023/08/20 00:05:29;;;;;;;5.38;3.20;;;22.70;99.90;;;23.27;100.00;101413.59;5161913;28;20046;-57
2023/08/20 00:08:02;;;;;;;5.80;3.10;;;22.70;99.90;;;23.26;100.00;101415.38;5168523;28;20555;-58
2023/08/20 00:10:35;;;;;;;6.88;3.47;;;22.70;99.90;;;23.27;100.00;101408.28;5171082;28;20050;-55
2023/08/20 00:13:08;;;;;;;5.38;3.17;;;22.70;99.90;;;23.28;100.00;101415.41;5169171;28;20057;-55
2023/08/20 00:15:41;;;;;;;4.82;3.42;;;22.70;99.90;;;23.27;100.00;101410.94;5170740;28;20060;-55
2023/08/20 00:18:15;;;;;;;5.22;3.60;;;22.70;99.90;;;23.25;100.00;101402.09;5177463;28;20047;-56
2023/08/20 00:20:48;;;;;;;4.63;2.97;;;22.70;99.90;;;23.23;100.00;101401.25;5161878;28;20053;-55
2023/08/20 00:23:21;;;;;;;5.70;3.63;;;22.70;99.90;;;23.21;100.00;101414.56;5169451;28;20054;-57
2023/08/20 00:25:55;;;;;;;5.45;3.58;;;22.70;99.90;;;23.17;100.00;101415.47;5173917;28;20050;-56
2023/08/20 00:28:29;;;;;;;5.70;3.63;;;22.60;99.90;;;23.13;100.00;101419.03;5172113;28;20055;-55
2023/08/20 00:31:04;;;;;;;6.00;3.67;;;22.60;99.90;;;23.08;100.00;101423.50;5167549;28;20053;-56
2023/08/20 00:33:36;;;;;;;6.32;3.60;;;22.60;99.90;;;23.05;100.00;101422.66;5169407;28;20123;-56
2023/08/20 00:36:09;;;;;;;4.50;2.85;;;22.50;99.90;;;23.00;100.00;101428.88;5168761;28;20046;-56
2023/08/20 00:38:41;;;;;;;5.75;3.63;;;22.50;99.90;;;22.97;100.00;101426.25;5165458;28;20057;-55
2023/08/20 00:41:13;;;;;;;5.57;3.50;;;22.40;99.90;;;22.92;100.00;101420.06;5175296;28;20473;-55
2023/08/20 00:43:47;;;;;;;6.65;3.80;;;22.40;99.90;;;22.92;100.00;101412.09;5169095;28;20035;-55
2023/08/20 00:46:20;;;;;;;5.00;3.22;;;22.40;99.90;;;22.91;100.00;101420.06;5161490;28;20042;-55
2023/08/20 00:48:52;;;;;;;5.10;3.40;;;22.40;99.90;;;22.90;100.00;101427.19;5177236;28;20050;-55
2023/08/20 00:51:25;;;;;;;4.88;3.47;;;22.40;99.90;;;22.88;100.00;101426.28;5161372;28;20519;-55
2023/08/20 00:53:58;;;;;;;5.43;3.20;;;22.30;99.90;;;22.86;100.00;101422.75;5181385;28;20069;-56
2023/08/20 00:56:30;;;;;;;6.22;3.53;;;22.30;99.90;;;22.84;100.00;101424.50;5171595;28;20145;-55
2023/08/20 00:59:06;;;;;;;4.97;3.42;;;22.30;99.90;;;22.81;100.00;101424.50;5168243;28;20049;-55
2023/08/20 01:01:39;;;;;;;5.53;3.15;;;22.30;99.90;;;22.81;100.00;101424.50;5171798;28;20050;-56
2023/08/20 01:04:11;;;;;;;4.72;3.03;;;22.30;99.90;;;22.79;100.00;101417.47;5173814;28;20073;-55
2023/08/20 01:06:56;;;;;;;5.05;3.35;;;22.30;99.90;;;22.75;100.00;101425.44;5164028;28;20129;-56
2023/08/20 01:09:39;;;;;;;5.70;3.45;;;22.30;99.90;;;22.74;100.00;101417.47;5180840;28;20330;-56
2023/08/20 01:12:12;;;;;;;4.65;2.92;;;22.20;99.90;;;22.73;100.00;101415.72;5167550;28;20096;-55
2023/08/20 01:14:46;;;;;;;4.97;2.90;;;22.20;99.90;;;22.70;100.00;101413.97;5172719;28;20057;-55
2023/08/20 01:17:21;;;;;;;4.63;2.92;;;22.20;99.90;;;22.69;100.00;101405.97;5165258;28;20046;-57
2023/08/20 01:19:54;;;;;;;4.53;3.00;;;22.20;99.90;;;22.66;100.00;101403.34;5189653;28;20042;-55
2023/08/20 01:22:54;;;;;;;4.60;3.10;;;22.20;99.90;;;22.63;100.00;101406.91;5180872;28;20104;-57
2023/08/20 01:25:47;;;;;;;4.53;2.90;;;22.10;99.90;;;22.63;100.00;101396.28;5168525;28;20051;-54
2023/08/20 01:28:26;;;;;;;4.55;3.05;;;22.10;99.90;;;22.62;100.00;101402.47;5169888;28;20058;-55
2023/08/20 01:31:01;;;;;;;5.97;3.97;;;22.10;99.90;;;22.57;100.00;101392.78;5181163;28;20061;-55
2023/08/20 01:33:33;;;;;;;7.18;3.92;;;22.10;99.90;;;22.51;100.00;101392.81;5167939;28;20043;-55
2023/08/20 01:36:10;;;;;;;6.55;3.95;;;22.10;99.90;;;22.48;100.00;101383.94;5168813;28;20080;-55
2023/08/20 01:38:42;;;;;;;6.03;3.95;;;22.10;99.90;;;22.50;100.00;101380.44;5186846;28;20049;-55
2023/08/20 01:41:14;;;;;;;6.05;3.72;;;22.00;99.90;;;22.48;100.00;101380.41;5180315;28;20050;-55
2023/08/20 01:43:48;;;;;;;7.22;3.90;;;22.00;99.90;;;22.47;100.00;101392.81;5163679;28;20044;-55
2023/08/20 01:46:21;;;;;;;5.55;3.72;;;22.00;99.90;;;22.45;100.00;101399.91;5196809;28;20126;-55
2023/08/20 01:48:57;;;;;;;5.47;3.50;;;22.00;99.90;;;22.44;100.00;101398.16;5164990;28;20042;-55
2023/08/20 01:51:29;;;;;;;7.47;4.20;;;22.00;99.90;;;22.41;100.00;101408.78;5170984;28;20153;-57
2023/08/20 01:54:02;;;;;;;6.28;3.53;;;21.90;99.90;;;22.38;100.00;101419.44;5159912;28;20065;-56
2023/08/20 01:56:34;;;;;;;7.15;3.72;;;21.90;99.90;;;22.36;100.00;101421.19;5169279;28;20060;-56
2023/08/20 01:59:08;;;;;;;6.35;3.85;;;21.90;99.90;;;22.34;100.00;101419.44;5166227;28;20153;-54
2023/08/20 02:01:40;;;;;;;5.90;3.38;;;21.90;99.90;;;22.31;100.00;101423.00;5159327;28;20504;-54
2023/08/20 02:04:12;;;;;;;4.28;3.15;;;21.80;99.90;;;22.30;100.00;101421.25;5166329;28;20042;-56
2023/08/20 02:06:45;;;;;;;5.72;3.72;;;21.80;99.90;;;22.29;100.00;101416.78;5171844;28;20042;-55
2023/08/20 02:09:22;;;;;;;;;;;21.80;99.90;;;22.26;100.00;101418.59;5180405;28;20049;-56
2023/08/20 02:11:56;;;;;;;6.43;3.45;;;21.80;99.90;;;22.22;100.00;101430.97;5164588;28;19925;-56
2023/08/20 02:14:33;;;;;;;4.95;3.22;;;21.80;99.90;;;22.19;100.00;101423.03;5163491;28;20415;-57
2023/08/20 02:17:08;;;;;;;5.88;3.30;;;21.70;99.90;;;22.16;100.00;101423.91;5188273;28;20057;-56
2023/08/20 02:19:41;;;;;;;5.95;3.33;;;21.70;99.90;;;22.13;100.00;101423.94;5179805;28;20529;-55
2023/08/20 02:22:13;;;;;;;6.10;3.78;;;21.70;99.90;;;22.14;100.00;101430.13;5171899;28;20053;-55
2023/08/20 02:24:46;;;;;;;4.32;3.05;;;21.60;99.90;;;22.10;100.00;101428.34;5176766;28;20042;-56
2023/08/20 02:27:18;;;;;;;6.10;3.20;;;21.60;99.90;;;22.06;100.00;101432.78;5166674;28;20492;-55
2023/08/20 02:29:52;;;;;;;5.47;3.42;;;21.60;99.90;;;22.01;100.00;101428.34;5169473;28;20042;-56
2023/08/20 02:32:24;;;;;;;5.13;3.33;;;21.50;99.90;;;21.97;100.00;101431.88;5163523;28;20401;-55
2023/08/20 02:34:56;;;;;;;5.32;3.35;;;21.50;99.90;;;21.94;100.00;101432.78;5171950;28;20038;-54
2023/08/20 02:37:32;;;;;;;4.75;3.20;;;21.50;99.90;;;21.90;100.00;101437.19;5170726;28;20047;-56
2023/08/20 02:40:06;;;;;;;4.90;3.10;;;21.40;99.90;;;21.87;100.00;101431.91;5164649;28;20069;-56
2023/08/20 02:42:39;;;;;;;3.97;2.90;;;21.40;99.90;;;21.84;100.00;101437.25;5169415;28;20045;-55
2023/08/20 02:45:13;;;;;;;4.75;3.03;;;21.40;99.90;;;21.81;100.00;101437.22;5160628;28;20527;-57
2023/08/20 02:47:45;;;;;;;6.65;3.08;;;21.30;99.90;;;21.78;100.00;101434.59;5163495;28;20051;-55
2023/08/20 02:50:17;;;;;;;4.63;3.38;;;21.30;99.90;;;21.76;100.00;101444.31;5163480;28;20456;-54
2023/08/20 02:52:50;;;;;;;4.93;3.00;;;21.30;99.90;;;21.75;100.00;101442.53;5171487;28;20042;-56
2023/08/20 02:55:22;;;;;;;4.78;3.10;;;21.30;99.90;;;21.74;100.00;101446.09;5170888;28;20144;-54
2023/08/20 02:57:54;;;;;;;5.60;3.30;;;21.30;99.90;;;21.73;100.00;101451.41;5171775;28;20523;-55
2023/08/20 03:00:29;;;;;;;5.28;3.30;;;21.20;99.90;;;21.70;100.00;101454.91;5179009;28;20050;-54
2023/08/20 03:03:03;;;;;;;5.20;3.53;;;21.30;99.90;;;21.70;100.00;101469.97;5171540;28;20169;-54
2023/08/20 03:05:36;;;;;;;6.57;3.67;;;21.20;99.90;;;21.69;100.00;101479.69;5172223;28;20046;-58
2023/08/20 03:08:09;;;;;;;4.90;3.50;;;21.20;99.90;;;21.70;100.00;101486.75;5179741;28;20096;-56
2023/08/20 03:10:42;;;;;;;6.43;3.33;;;21.20;99.90;;;21.70;100.00;101481.47;5178600;28;20201;-55
2023/08/20 03:13:15;;;;;;;5.13;3.45;;;21.20;99.90;;;21.70;100.00;101486.75;5163233;28;20173;-56
2023/08/20 03:15:48;;;;;;;5.45;3.40;;;21.20;99.90;;;21.69;100.00;101469.09;5173565;28;20050;-55
2023/08/20 03:18:21;;;;;;;5.53;3.38;;;21.20;99.90;;;21.70;100.00;101473.50;5192964;28;20065;-56
2023/08/20 03:20:55;;;;;;;5.55;3.40;;;21.20;99.90;;;21.70;100.00;101476.16;5173855;28;20372;-55
2023/08/20 03:23:28;;;;;;;5.80;3.47;;;21.20;99.90;;;21.70;100.00;101470.84;5167430;28;20050;-54
2023/08/20 03:26:00;;;;;;;5.40;3.50;;;21.20;99.90;;;21.70;100.00;101469.97;5178756;28;20535;-55
2023/08/20 03:28:33;;;;;;;4.40;3.17;;;21.20;99.90;;;21.71;100.00;101455.81;5180719;28;20050;-55
2023/08/20 03:31:06;;;;;;;5.32;3.53;;;21.20;99.90;;;21.70;100.00;101446.97;5158894;28;20074;-57
2023/08/20 03:33:44;;;;;;;5.30;3.65;;;21.20;99.90;;;21.68;100.00;101454.94;5168594;28;20057;-57
2023/08/20 03:36:16;;;;;;;5.93;3.60;;;21.20;99.90;;;21.67;100.00;101468.22;5171137;28;20048;-55
2023/08/20 03:38:49;;;;;;;5.38;3.65;;;21.20;99.90;;;21.67;100.00;101470.84;5165110;28;20583;-54
2023/08/20 03:41:24;;;;;;;6.15;3.63;;;21.20;99.90;;;21.66;100.00;101479.72;5175834;28;20045;-53
2023/08/20 03:43:56;;;;;;;7.03;3.67;;;21.20;99.90;;;21.67;100.00;101476.16;5170752;28;20053;-56
2023/08/20 03:46:31;;;;;;;6.00;3.72;;;21.20;99.90;;;21.67;100.00;101479.69;5162545;28;20061;-56
2023/08/20 03:49:04;;;;;;;7.28;4.07;;;21.20;99.90;;;21.67;100.00;101476.16;5196165;28;20046;-57
2023/08/20 03:51:36;;;;;;;5.97;3.63;;;21.20;99.90;;;21.68;100.00;101477.94;5162660;28;20384;-54
2023/08/20 03:54:09;;;;;;;5.32;3.60;;;21.20;99.90;;;21.70;100.00;101478.81;5165843;28;20480;-54
2023/08/20 03:56:41;;;;;;;6.15;3.53;;;21.20;99.90;;;21.72;100.00;101490.31;5190936;28;20056;-57
2023/08/20 03:59:16;;;;;;;5.05;3.47;;;21.20;99.90;;;21.72;100.00;101485.00;5167731;28;20053;-55
2023/08/20 04:01:50;;;;;;;5.00;3.35;;;21.30;99.90;;;21.75;100.00;101492.09;5163875;28;20062;-56
2023/08/20 04:04:22;;;;;;;4.82;3.40;;;21.30;99.90;;;21.75;100.00;101505.34;5169115;28;20057;-57
2023/08/20 04:06:55;;;;;;;4.93;3.22;;;21.30;99.90;;;21.75;100.00;101495.63;5173795;28;20034;-55
2023/08/20 04:09:27;;;;;;;5.65;3.58;;;21.30;99.90;;;21.74;100.00;101499.16;5166842;28;20054;-54
2023/08/20 04:12:00;;;;;;;6.22;3.92;;;21.30;99.90;;;21.74;100.00;101501.81;5165010;28;20076;-55
2023/08/20 04:14:32;;;;;;;4.95;3.60;;;21.20;99.90;;;21.72;100.00;101500.94;5174654;28;20046;-55
2023/08/20 04:17:06;;;;;;;7.43;4.03;;;21.30;99.90;;;21.69;100.00;101508.88;5170429;28;20050;-54
2023/08/20 04:19:38;;;;;;;6.65;3.65;;;21.20;99.90;;;21.67;100.00;101503.56;5170018;28;20046;-56
2023/08/20 04:22:11;;;;;;;6.13;3.70;;;21.20;99.90;;;21.66;100.00;101496.50;5168911;28;20046;-56
2023/08/20 04:24:43;;;;;;;5.43;3.13;;;21.20;99.90;;;21.64;100.00;101502.69;5169753;28;20073;-56
2023/08/20 04:27:18;;;;;;;4.90;3.13;;;21.10;99.90;;;21.63;100.00;101506.22;5162015;28;20056;-55
2023/08/20 04:29:51;;;;;;;5.13;3.38;;;21.20;99.90;;;21.62;100.00;101507.09;5186170;28;20049;-55
2023/08/20 04:32:26;;;;;;;5.28;3.47;;;21.10;99.90;;;21.61;100.00;101513.31;5176077;28;20050;-55
2023/08/20 04:34:59;;;;;;;5.10;3.67;;;21.10;99.90;;;21.60;100.00;101511.53;5162112;28;20053;-54
2023/08/20 04:37:35;;;;;;;5.25;3.05;;;21.10;99.90;;;21.58;100.00;101514.19;5169550;28;20046;-58
2023/08/20 04:40:09;;;;;;;5.10;3.50;;;21.10;99.90;;;21.55;100.00;101516.84;5174426;28;20240;-54
2023/08/20 04:42:41;;;;;;;5.95;3.47;;;21.10;99.90;;;21.51;100.00;101519.47;5179892;28;20193;-54
2023/08/20 04:45:14;;;;;;;5.32;3.70;;;21.10;99.90;;;21.44;100.00;101531.84;5166664;28;20133;-57
2023/08/20 04:47:48;;;;;;;5.93;3.45;;;21.00;99.90;;;21.42;100.00;101527.41;5171971;28;20463;-54
2023/08/20 04:50:22;;;;;;;6.20;3.67;;;20.90;99.90;;;21.43;100.00;101539.81;5167530;28;20496;-57
2023/08/20 04:52:56;;;;;;;5.45;3.35;;;21.00;99.90;;;21.43;100.00;101539.81;5173098;28;20144;-54
2023/08/20 04:55:32;;;;;;;6.72;3.35;;;21.00;99.90;;;21.40;100.00;101530.97;5173514;28;20060;-57
2023/08/20 04:58:05;;;;;;;5.78;3.60;;;21.00;99.90;;;21.39;100.00;101534.50;5161664;28;20054;-56
2023/08/20 05:00:44;;;;;;;5.20;3.33;;;20.90;99.90;;;21.38;100.00;101538.00;5168987;28;20046;-56
2023/08/20 05:03:24;;;;;;;5.30;3.63;;;20.90;99.90;;;21.40;100.00;101540.69;5175747;28;20058;-54
2023/08/20 05:05:56;;;;;;;5.30;3.22;;;20.90;99.90;;;21.38;100.00;101548.63;5163513;28;20682;-54
2023/08/20 05:08:28;;;;;;;6.78;3.53;;;20.90;99.90;;;21.39;100.00;101539.81;5181162;28;20068;-58
2023/08/20 05:11:01;;;;;;;6.10;3.60;;;20.90;99.90;;;21.44;100.00;101538.91;5161256;28;20047;-56
2023/08/20 05:13:33;;;;;;;6.10;3.80;;;21.00;99.90;;;21.46;100.00;101530.09;5169194;28;20057;-55
2023/08/20 05:16:06;;;;;;;6.57;3.70;;;21.00;99.90;;;21.52;100.00;101538.06;5180212;28;20049;-56
2023/08/20 05:18:40;;;;;;;5.82;3.63;;;21.10;99.90;;;21.57;100.00;101553.97;5164838;28;20586;-55
2023/08/20 05:21:13;;;;;;;6.28;4.03;;;21.10;99.90;;;21.60;100.00;101543.38;5177319;28;20046;-54
2023/08/20 05:23:45;;;;;;;6.75;3.67;;;21.10;99.90;;;21.66;100.00;101546.91;5168795;28;20053;-58
2023/08/20 05:26:18;;;;;;;6.25;3.95;;;21.20;99.90;;;21.76;100.00;101537.19;5168802;28;20077;-54
2023/08/20 05:28:50;;;;;;;6.07;4.15;;;21.30;99.90;;;21.84;100.00;101535.44;5169634;28;20038;-54
2023/08/20 05:31:26;;;;;;;6.07;3.80;;;21.30;99.90;;;21.95;100.00;101536.31;5176721;28;20045;-56
2023/08/20 05:33:59;;;;;;;7.97;4.15;;;21.40;99.90;;;22.12;100.00;101530.16;5170209;28;20132;-54
2023/08/20 05:36:32;;;;;;;7.90;4.68;;;21.60;99.90;;;22.27;100.00;101543.38;5175792;28;20057;-55
2023/08/20 05:39:05;;;;;;;6.85;4.45;;;21.70;99.90;;;22.36;100.00;101542.47;5179833;28;20517;-54
2023/08/20 05:41:41;;;;;;;7.50;4.47;;;21.80;99.90;;;22.37;100.00;101550.47;5172583;28;20069;-56
2023/08/20 05:44:14;;;;;;;9.45;4.68;;;21.80;99.90;;;22.41;100.00;101548.69;5164825;28;20105;-53
2023/08/20 05:46:47;;;;;;;8.18;4.88;;;21.90;99.90;;;22.48;100.00;101546.00;5157968;28;20074;-56
2023/08/20 05:49:21;;;;;;;7.45;4.95;;;21.90;99.90;;;22.61;100.00;101546.84;5172326;28;20121;-54
2023/08/20 05:51:53;;;;;;;8.13;5.22;;;22.00;99.90;;;22.82;100.00;101542.34;5170258;28;20046;-55
2023/08/20 05:54:26;;;;;;;9.27;5.00;;;22.20;99.90;;;23.08;100.00;101551.13;5174173;28;20431;-55
2023/08/20 05:57:01;;;;;;;9.63;5.45;;;22.40;99.90;;;23.34;100.00;101555.44;5169643;28;20045;-57
2023/08/20 05:59:37;;;;;;;7.30;5.07;;;22.60;99.90;;;23.56;100.00;101557.06;5175271;28;20057;-55
2023/08/20 06:02:09;;;;;;;8.13;4.90;;;22.90;99.90;;;23.81;100.00;101555.16;5159230;28;20109;-55
2023/08/20 06:04:43;;;;;;;8.77;5.20;;;23.10;99.90;;;24.03;100.00;101548.75;5175985;28;20537;-57
2023/08/20 06:07:15;;;;;;;9.55;5.65;;;23.30;99.90;;;24.29;100.00;101552.94;5173990;28;20041;-55
2023/08/20 06:09:49;;;;;;;8.50;5.35;;;23.50;99.90;;;24.52;100.00;101553.66;5158406;28;20050;-55
2023/08/20 06:12:22;;;;;;;10.32;5.38;;;23.80;99.90;;;24.68;100.00;101550.78;5161180;28;20053;-57
2023/08/20 06:14:54;;;;;;;8.18;4.93;;;23.90;99.90;;;24.86;100.00;101561.25;5157622;28;20046;-55
2023/08/20 06:17:27;;;;;;;8.95;5.20;;;24.10;99.90;;;25.06;100.00;101556.56;5155780;28;20176;-54
2023/08/20 06:20:00;;;;;;;7.88;4.75;;;24.30;99.90;;;25.29;100.00;101558.91;5183104;28;20064;-57
2023/08/20 06:22:33;;;;;;;8.82;4.85;;;24.50;99.90;;;25.41;100.00;101572.09;5164719;28;20050;-56
2023/08/20 06:25:07;;;;;;;8.00;4.93;;;24.70;99.90;;;25.53;100.00;101565.69;5160290;28;20045;-55
2023/08/20 06:27:42;;;;;;;7.65;4.80;;;24.70;99.90;;;25.57;100.00;101571.88;5157932;28;20050;-55
2023/08/20 06:30:15;;;;;;;9.48;5.07;;;24.80;99.90;;;25.52;100.00;101573.72;5172744;28;20047;-54
2023/08/20 06:32:47;;;;;;;8.82;4.57;;;24.90;99.90;;;25.52;100.00;101569.28;5165263;28;20416;-55
2023/08/20 06:35:21;;;;;;;11.05;5.25;;;24.80;99.90;;;25.63;100.00;101577.13;5162153;28;20054;-57
2023/08/20 06:37:53;;;;;;;10.52;5.63;;;24.90;99.90;;;25.79;100.00;101572.47;5160036;28;20051;-55
2023/08/20 06:40:26;;;;;;;8.38;5.75;;;25.00;99.90;;;25.95;100.00;101568.63;5158244;28;20766;-55
2023/08/20 06:42:58;;;;;;;9.25;5.55;;;25.10;99.90;;;26.12;100.00;101571.91;5160416;28;20065;-58
2023/08/20 06:45:31;;;;;;;8.82;5.38;;;25.30;99.90;;;26.29;100.00;101566.28;5161075;28;20120;-56
2023/08/20 06:48:05;;;;;;;10.75;5.78;;;25.50;99.90;;;26.51;100.00;101569.44;5161042;28;20055;-55
2023/08/20 06:50:39;;;;;;;10.05;5.28;;;25.60;99.90;;;26.64;100.00;101560.28;5160999;28;20043;-54
2023/08/20 06:53:11;;;;;;;10.18;5.43;;;25.80;99.90;;;26.75;100.00;101571.66;5160655;28;20053;-56
2023/08/20 06:55:44;;;;;;;8.90;5.82;;;25.90;99.90;;;26.90;100.00;101572.25;5159153;28;20404;-56
2023/08/20 06:58:16;;;;;;;9.25;5.38;;;26.00;99.90;;;27.09;100.00;101568.31;5195586;28;20050;-56
2023/08/20 07:00:49;;;;;;;8.43;5.25;;;26.20;99.90;;;27.25;100.00;101567.03;5158387;28;20455;-54
2023/08/20 07:03:21;;;;;;;10.70;5.30;;;26.30;99.90;;;27.47;100.00;101569.25;5164167;28;20077;-55
2023/08/20 07:05:55;;;;;;;8.65;5.13;;;26.50;99.90;;;27.69;100.00;101575.00;5161878;28;20050;-56
2023/08/20 07:08:27;;;;;;;9.30;5.00;;;26.80;99.90;;;27.83;100.00;101572.88;5159118;28;20069;-54
2023/08/20 07:11:00;;;;;;;8.05;4.93;;;26.90;99.90;;;27.89;100.00;101572.72;5168155;28;20407;-54
2023/08/20 07:13:33;;;;;;;7.95;4.97;;;27.00;99.90;;;27.92;100.00;101575.34;5179415;28;20052;-53
2023/08/20 07:16:05;;;;;;;7.22;4.63;;;27.00;99.90;;;28.03;100.00;101580.41;5170915;28;20057;-52
2023/08/20 07:18:38;;;;;;;9.07;5.20;;;27.10;99.90;;;28.12;100.00;101578.41;5171223;28;20045;-54
2023/08/20 07:21:11;;;;;;;9.90;5.50;;;27.20;99.90;;;28.15;100.00;101577.41;5159286;28;20101;-52
2023/08/20 07:23:47;;;;;;;8.27;5.03;;;27.20;99.90;;;28.29;100.00;101572.56;5174769;28;20574;-54
2023/08/20 07:26:19;;;;;;;9.48;5.18;;;27.30;99.90;;;28.44;100.00;101574.03;5171841;28;20053;-53
2023/08/20 07:28:57;;;;;;;8.95;4.75;;;27.40;99.90;;;28.61;100.00;101578.91;5180071;28;20053;-52
2023/08/20 07:31:31;;;;;;;9.13;4.78;;;27.60;99.90;;;28.81;100.00;101578.34;5170894;28;20133;-53
2023/08/20 07:34:07;;;;;;;7.57;4.68;;;27.80;99.90;;;29.07;100.00;101582.97;5166563;28;20530;-53
2023/08/20 07:36:40;;;;;;;9.48;4.97;;;28.00;99.90;;;29.28;100.00;101581.44;5176267;28;20427;-54
2023/08/20 07:39:14;;;;;;;7.70;4.78;;;28.20;99.90;;;29.43;100.00;101587.25;5170678;28;20083;-53
2023/08/20 07:41:47;;;;;;;10.05;5.47;;;28.40;99.90;;;29.46;100.00;101589.81;5162364;28;20069;-54
2023/08/20 07:44:19;;;;;;;8.40;4.82;;;28.40;99.90;;;29.48;100.00;101583.53;5182847;28;20434;-53
2023/08/20 07:46:51;;;;;;;8.55;5.15;;;28.50;99.90;;;29.42;100.00;101585.50;5166140;28;20050;-51
2023/08/20 07:49:24;;;;;;;7.60;4.88;;;28.40;99.90;;;29.31;100.00;101581.38;5177947;28;20049;-52
2023/08/20 07:52:01;;;;;;;8.88;4.85;;;28.30;99.90;;;29.24;100.00;101580.69;5166291;28;20054;-53
2023/08/20 07:54:33;;;;;;;8.40;4.82;;;28.20;99.90;;;29.22;100.00;101573.63;5175353;28;20112;-52
2023/08/20 07:57:05;;;;;;;6.95;4.65;;;28.10;99.90;;;29.23;100.00;101575.38;5173983;28;20114;-52
2023/08/20 07:59:38;;;;;;;7.07;4.68;;;28.10;99.90;;;29.27;100.00;101577.88;5174687;28;20133;-52
2023/08/20 08:02:11;;;;;;;6.95;4.72;;;28.10;99.90;;;29.40;100.00;101579.25;5175542;28;20054;-52
2023/08/20 08:04:44;;;;;;;6.78;4.38;;;28.10;99.90;;;29.53;100.00;101581.59;5177073;28;20046;-55
2023/08/20 08:07:18;;;;;;;8.00;4.50;;;28.20;99.90;;;29.66;100.00;101583.84;5175784;28;20046;-52
2023/08/20 08:09:50;;;;;;;8.32;4.60;;;28.20;99.90;;;29.82;100.00;101578.88;5156861;28;20054;-54
2023/08/20 08:12:22;;;;;;;7.50;4.30;;;28.30;99.90;;;29.96;100.00;101575.72;5133739;28;20501;-53
2023/08/20 08:14:55;;;;;;;8.13;4.47;;;28.30;99.90;;;30.24;100.00;101581.06;5149692;28;20058;-53
2023/08/20 08:17:27;;;;;;;6.32;4.43;;;28.40;99.90;;;30.65;100.00;101584.13;5144888;28;20049;-52
2023/08/20 08:20:03;;;;;;;5.97;4.22;;;28.60;99.90;;;31.14;99.31;101588.56;5149901;28;20516;-54
2023/08/20 08:22:37;;;;;;;5.63;3.78;;;28.90;99.90;;;31.63;97.27;101591.19;5155494;28;20500;-52
2023/08/20 08:25:09;;;;;;;6.30;3.85;;;29.10;99.90;;;32.10;95.20;101592.78;5144846;28;20432;-54
2023/08/20 08:27:41;;;;;;;4.75;3.25;;;29.40;99.90;;;32.57;92.13;101584.47;5148821;28;20053;-53
2023/08/20 08:30:14;;;;;;;6.32;3.70;;;29.60;99.90;;;33.24;89.13;101585.03;5154383;28;20160;-52
2023/08/20 08:32:46;;;;;;;3.88;2.97;;;29.90;99.90;;;34.11;86.17;101589.78;5154226;28;20051;-54
2023/08/20 08:35:21;;;;;;;6.63;4.05;;;30.40;99.90;;;35.08;83.01;101589.16;5157469;28;20157;-53
2023/08/20 08:37:54;;;;;;;5.20;3.70;;;31.00;99.90;;;35.92;80.40;101590.75;5144352;28;20067;-56
2023/08/20 08:40:30;;;;;;;5.38;3.53;;;31.80;99.90;;;36.52;77.59;101590.78;5147269;28;20057;-54
2023/08/20 08:43:03;;;;;;;5.72;3.50;;;32.40;98.30;;;37.09;75.87;101593.53;5139601;28;20054;-55
2023/08/20 08:45:36;;;;;;;4.50;3.40;;;32.90;97.00;;;37.60;74.90;101596.56;5137227;28;20050;-52
2023/08/20 08:48:09;;;;;;;5.47;3.40;;;33.50;95.90;;;38.04;73.72;101595.47;5140458;28;20428;-53
2023/08/20 08:50:45;;;;;;;5.32;3.17;;;34.00;94.90;;;38.28;73.05;101593.81;5145073;28;20054;-52
2023/08/20 08:53:20;;;;;;;5.28;3.28;;;34.40;94.20;;;37.81;73.49;101594.28;5139639;28;20051;-53
2023/08/20 08:55:52;;;;;;;5.85;3.72;;;34.40;93.00;;;37.55;73.21;101598.72;5148244;28;20054;-52
2023/08/20 08:58:24;;;;;;;4.68;2.90;;;34.20;92.50;;;37.81;72.75;101595.16;5141411;28;20051;-52
2023/08/20 09:00:57;;;;;;;4.10;2.90;;;34.30;92.20;;;38.25;71.50;101593.97;5140557;28;20539;-52
2023/08/20 09:03:29;;;;;;;4.10;3.10;;;34.50;91.40;;;37.96;71.22;101585.09;5153566;28;20419;-55
2023/08/20 09:06:03;;;;;;;4.10;3.13;;;34.60;90.90;;;37.73;71.48;101583.91;5152597;28;20054;-54
2023/08/20 09:08:37;;;;;;;4.53;3.03;;;34.40;90.60;;;37.90;70.61;101580.94;5143537;28;20121;-56
2023/08/20 09:11:09;;;;;;;4.95;2.85;;;34.50;90.20;;;38.04;67.97;101590.03;5154080;28;20054;-53
2023/08/20 09:13:43;;;;;;;4.57;2.78;;;34.70;87.70;;;37.96;67.58;101598.72;5149243;28;20049;-54
2023/08/20 09:16:16;;;;;;;3.97;2.42;;;34.80;85.60;;;37.62;66.79;101590.03;5133174;28;20685;-55
2023/08/20 09:18:48;;;;;;;4.60;2.90;;;34.70;84.00;;;36.67;66.14;101589.81;5142000;28;20047;-54
2023/08/20 09:21:28;;;;;;;2.95;2.58;;;34.40;81.10;;;36.02;67.66;101583.84;5145994;28;20053;-52
2023/08/20 09:24:02;;;;;;;;;;;34.00;81.40;;;35.31;69.11;101578.84;5151549;28;20050;-54
2023/08/20 09:26:35;;;;;;;4.10;2.58;;;33.70;81.60;;;34.81;71.55;101575.25;5153576;28;19926;-53
2023/08/20 09:29:07;;;;;;;4.28;2.72;;;33.40;83.20;;;34.37;72.26;101579.44;5150479;28;20061;-52
2023/08/20 09:31:43;;;;;;;4.75;2.97;;;33.20;83.40;;;33.87;72.28;101580.19;5145770;28;20450;-53
2023/08/20 09:34:15;;;;;;;4.57;2.80;;;32.70;83.00;;;33.49;74.78;101580.25;5149533;28;20046;-51
2023/08/20 09:36:47;;;;;;;4.25;2.65;;;32.50;84.80;;;33.31;76.46;101586.50;5140214;28;20046;-51
2023/08/20 09:39:21;;;;;;;5.45;3.30;;;32.30;86.20;;;33.13;75.12;101580.16;5150387;28;20054;-53
2023/08/20 09:41:54;;;;;;;5.20;3.20;;;32.10;84.90;;;32.84;75.72;101586.88;5159912;28;20043;-52
2023/08/20 09:44:32;;;;;;;4.75;2.90;;;31.90;85.60;;;32.54;76.64;101584.63;5148156;28;20046;-52
2023/08/20 09:47:07;;;;;;;4.47;2.83;;;31.60;86.10;;;32.09;78.88;101585.66;5151863;28;20061;-53
2023/08/20 09:49:41;;;;;;;4.10;2.90;;;31.20;87.60;;;31.86;81.20;101581.22;5147537;28;20428;-53
2023/08/20 09:52:23;;;;;;;5.05;3.40;;;31.00;90.00;;;31.88;83.94;101578.44;5173496;28;20089;-53
2023/08/20 09:55:05;;;;;;;5.30;3.38;;;30.90;91.20;;;32.00;84.54;101572.53;5150664;28;20057;-53
2023/08/20 09:57:39;;;;;;;4.43;3.35;;;30.90;91.80;;;32.10;83.57;101573.91;5149231;28;20050;-54
2023/08/20 10:00:13;;;;;;;4.97;3.13;;;30.90;91.80;;;32.16;82.76;101569.22;5146995;28;20516;-54
2023/08/20 10:02:49;;;;;;;4.90;3.47;;;31.00;91.50;;;32.23;82.04;101573.41;5147352;28;20053;-54
2023/08/20 10:05:22;;;;;;;4.97;3.42;;;31.00;91.20;;;32.40;82.57;101573.53;5159153;28;20053;-52
2023/08/20 10:07:57;;;;;;;5.25;3.60;;;31.10;91.60;;;32.56;81.81;101574.63;5151447;28;20046;-50
2023/08/20 10:10:31;;;;;;;5.05;3.50;;;31.30;91.50;;;32.75;81.36;101576.50;5158128;28;20047;-50
2023/08/20 10:13:04;;;;;;;5.10;3.50;;;31.40;91.30;;;32.90;81.06;101578.53;5150663;28;20825;-52
2023/08/20 10:15:37;;;;;;;4.75;3.53;;;31.60;91.10;;;33.01;81.03;101578.91;5140918;28;20488;-53
2023/08/20 10:18:11;;;;;;;5.82;4.10;;;31.70;91.20;;;33.09;81.21;101583.94;5164680;28;20057;-51
2023/08/20 10:20:44;;;;;;;6.40;4.32;;;31.80;91.20;;;33.10;81.09;101578.47;5153350;28;20123;-52
2023/08/20 10:23:16;;;;;;;5.65;3.72;;;31.80;91.00;;;33.14;83.06;101579.22;5154877;28;20047;-52
2023/08/20 10:25:52;;;;;;;6.18;3.78;;;31.90;91.80;;;33.06;82.82;101575.97;5151604;28;20582;-54
2023/08/20 10:28:28;;;;;;;5.85;3.88;;;31.80;91.70;;;32.99;83.79;101578.09;5158284;28;20554;-54
2023/08/20 10:31:09;;;;;;;7.20;4.05;;;31.80;92.10;;;32.88;83.24;101573.19;5158564;28;20049;-52
2023/08/20 10:33:51;;;;;;;5.70;3.72;;;31.70;91.90;;;32.57;83.23;101579.09;5154206;28;20047;-53